sensor_id;sensor_type;location;lat;lon;timestamp;temperature;humidity
5041;DHT22;2539;52.568;13.364;2023-02-01T00:02:22;4.40;99.90
5041;DHT22;2539;52.568;13.364;2023-02-01T00:04:48;4.30;99.90
5041;DHT22;2539;52.568;13.364;2023-02-01T00:07:15;4.10;99.90
5041;DHT22;2539;52.568;13.364;2023-02-01T00:09:41;4.00;99.90
5041;DHT22;2539;52.568;13.364;2023-02-01T00:12:07;4.00;99.90
5041;DHT22;2539;52.568;13.364;2023-02-01T00:14:32;3.90;99.90
5041;DHT22;2539;52.568;13.364;2023-02-01T00:17:07;4.00;99.90
5041;DHT22;2539;52.568;13.364;2023-02-01T00:19:33;4.00;99.90
5041;DHT22;2539;52.568;13.364;2023-02-01T00:22:00;3.90;99.90
5041;DHT22;2539;52.568;13.364;2023-02-01T00:24:28;3.80;99.90
5041;DHT22;2539;52.568;13.364;2023-02-01T00:26:54;3.80;99.90
5041;DHT22;2539;52.568;13.364;2023-02-01T00:29:20;4.00;99.90
5041;DHT22;2539;52.568;13.364;2023-02-01T00:31:50;3.90;99.90
5041;DHT22;2539;52.568;13.364;2023-02-01T00:34:17;3.80;99.90
5041;DHT22;2539;52.568;13.364;2023-02-01T00:36:44;3.90;99.90
5041;DHT22;2539;52.568;13.364;2023-02-01T00:39:10;4.00;99.90
5041;DHT22;2539;52.568;13.364;2023-02-01T00:41:39;4.00;99.90
5041;DHT22;2539;52.568;13.364;2023-02-01T00:44:06;3.90;99.90
5041;DHT22;2539;52.568;13.364;2023-02-01T00:46:32;4.10;99.90
5041;DHT22;2539;52.568;13.364;2023-02-01T00:48:59;4.10;99.90
5041;DHT22;2539;52.568;13.364;2023-02-01T00:51:28;4.20;99.90
5041;DHT22;2539;52.568;13.364;2023-02-01T00:53:55;4.20;99.90
5041;DHT22;2539;52.568;13.364;2023-02-01T00:56:22;4.20;99.90
5041;DHT22;2539;52.568;13.364;2023-02-01T00:58:48;4.20;99.90
5041;DHT22;2539;52.568;13.364;2023-02-01T01:01:20;4.10;99.90
5041;DHT22;2539;52.568;13.364;2023-02-01T01:03:53;4.00;99.90
5041;DHT22;2539;52.568;13.364;2023-02-01T01:06:23;3.90;99.90
5041;DHT22;2539;52.568;13.364;2023-02-01T01:08:54;3.90;99.90
5041;DHT22;2539;52.568;13.364;2023-02-01T01:11:25;3.90;99.90
5041;DHT22;2539;52.568;13.364;2023-02-01T01:13:54;3.70;99.90
5041;DHT22;2539;52.568;13.364;2023-02-01T01:16:22;3.60;99.90
5041;DHT22;2539;52.568;13.364;2023-02-01T01:18:49;3.70;99.90
5041;DHT22;2539;52.568;13.364;2023-02-01T01:21:16;3.60;99.90
5041;DHT22;2539;52.568;13.364;2023-02-01T01:23:44;3.70;99.90
5041;DHT22;2539;52.568;13.364;2023-02-01T01:26:14;3.80;99.90
5041;DHT22;2539;52.568;13.364;2023-02-01T01:28:41;3.80;99.90
5041;DHT22;2539;52.568;13.364;2023-02-01T01:31:09;3.80;99.90
5041;DHT22;2539;52.568;13.364;2023-02-01T01:33:36;3.80;99.90
5041;DHT22;2539;52.568;13.364;2023-02-01T01:36:05;3.90;99.90
5041;DHT22;2539;52.568;13.364;2023-02-01T01:38:31;3.80;99.90
5041;DHT22;2539;52.568;13.364;2023-02-01T01:40:58;3.70;99.90
5041;DHT22;2539;52.568;13.364;2023-02-01T01:43:24;3.80;99.90
5041;DHT22;2539;52.568;13.364;2023-02-01T01:45:51;3.90;99.90
5041;DHT22;2539;52.568;13.364;2023-02-01T01:48:27;3.80;99.90
5041;DHT22;2539;52.568;13.364;2023-02-01T01:51:02;3.80;99.90
5041;DHT22;2539;52.568;13.364;2023-02-01T01:53:35;3.90;99.90
5041;DHT22;2539;52.568;13.364;2023-02-01T01:56:04;3.80;99.90
5041;DHT22;2539;52.568;13.364;2023-02-01T01:58:33;3.90;99.90
5041;DHT22;2539;52.568;13.364;2023-02-01T02:00:59;4.10;99.90
5041;DHT22;2539;52.568;13.364;2023-02-01T02:03:32;4.10;99.90
5041;DHT22;2539;52.568;13.364;2023-02-01T02:06:02;4.10;99.90
5041;DHT22;2539;52.568;13.364;2023-02-01T02:08:29;4.10;99.90
5041;DHT22;2539;52.568;13.364;2023-02-01T02:10:56;4.20;99.90
5041;DHT22;2539;52.568;13.364;2023-02-01T02:13:32;4.00;99.90
5041;DHT22;2539;52.568;13.364;2023-02-01T02:18:44;5.00;99.90
5041;DHT22;2539;52.568;13.364;2023-02-01T02:21:27;4.20;99.90
5041;DHT22;2539;52.568;13.364;2023-02-01T02:24:25;4.10;99.90
5041;DHT22;2539;52.568;13.364;2023-02-01T02:27:17;4.10;99.90
5041;DHT22;2539;52.568;13.364;2023-02-01T02:35:55;4.20;99.90
5041;DHT22;2539;52.568;13.364;2023-02-01T02:38:34;4.20;99.90
5041;DHT22;2539;52.568;13.364;2023-02-01T02:41:31;4.20;99.90
5041;DHT22;2539;52.568;13.364;2023-02-01T02:47:25;4.20;99.90
5041;DHT22;2539;52.568;13.364;2023-02-01T02:53:03;4.30;99.90
5041;DHT22;2539;52.568;13.364;2023-02-01T02:55:52;4.30;99.90
5041;DHT22;2539;52.568;13.364;2023-02-01T02:58:19;4.30;99.90
5041;DHT22;2539;52.568;13.364;2023-02-01T03:01:06;4.30;99.90
5041;DHT22;2539;52.568;13.364;2023-02-01T03:03:51;4.30;99.90
5041;DHT22;2539;52.568;13.364;2023-02-01T03:06:36;4.20;99.90
5041;DHT22;2539;52.568;13.364;2023-02-01T03:09:07;4.20;99.90
5041;DHT22;2539;52.568;13.364;2023-02-01T03:11:35;4.40;99.90
5041;DHT22;2539;52.568;13.364;2023-02-01T03:14:21;4.30;99.90
5041;DHT22;2539;52.568;13.364;2023-02-01T03:16:57;4.30;99.90
5041;DHT22;2539;52.568;13.364;2023-02-01T03:19:30;4.30;99.90
5041;DHT22;2539;52.568;13.364;2023-02-01T03:22:08;4.20;99.90
5041;DHT22;2539;52.568;13.364;2023-02-01T03:24:42;4.30;99.90
5041;DHT22;2539;52.568;13.364;2023-02-01T03:27:23;4.30;99.90
5041;DHT22;2539;52.568;13.364;2023-02-01T03:29:58;4.20;99.90
5041;DHT22;2539;52.568;13.364;2023-02-01T03:32:25;4.10;99.90
5041;DHT22;2539;52.568;13.364;2023-02-01T03:34:50;4.20;99.90
5041;DHT22;2539;52.568;13.364;2023-02-01T03:37:23;4.20;99.90
5041;DHT22;2539;52.568;13.364;2023-02-01T03:40:01;4.20;99.90
5041;DHT22;2539;52.568;13.364;2023-02-01T03:42:34;4.20;99.90
5041;DHT22;2539;52.568;13.364;2023-02-01T03:45:19;4.10;99.90
5041;DHT22;2539;52.568;13.364;2023-02-01T03:47:50;4.10;99.90
5041;DHT22;2539;52.568;13.364;2023-02-01T03:50:19;4.00;99.90
5041;DHT22;2539;52.568;13.364;2023-02-01T03:53:04;4.00;99.90
5041;DHT22;2539;52.568;13.364;2023-02-01T03:55:31;4.10;99.90
5041;DHT22;2539;52.568;13.364;2023-02-01T03:58:09;4.00;99.90
5041;DHT22;2539;52.568;13.364;2023-02-01T04:00:37;4.10;99.90
5041;DHT22;2539;52.568;13.364;2023-02-01T04:03:05;4.10;99.90
5041;DHT22;2539;52.568;13.364;2023-02-01T04:05:32;4.70;99.90
5041;DHT22;2539;52.568;13.364;2023-02-01T04:07:59;4.00;99.90
5041;DHT22;2539;52.568;13.364;2023-02-01T04:10:26;4.30;99.90
5041;DHT22;2539;52.568;13.364;2023-02-01T04:12:52;4.30;99.90
5041;DHT22;2539;52.568;13.364;2023-02-01T04:15:18;4.40;99.90
5041;DHT22;2539;52.568;13.364;2023-02-01T04:17:45;4.50;99.90
5041;DHT22;2539;52.568;13.364;2023-02-01T04:20:11;4.40;99.90
5041;DHT22;2539;52.568;13.364;2023-02-01T04:22:37;4.50;99.90
5041;DHT22;2539;52.568;13.364;2023-02-01T04:25:04;4.60;99.90
5041;DHT22;2539;52.568;13.364;2023-02-01T04:27:31;4.60;99.90
5041;DHT22;2539;52.568;13.364;2023-02-01T04:29:58;4.60;99.90
5041;DHT22;2539;52.568;13.364;2023-02-01T04:32:24;4.60;99.90
5041;DHT22;2539;52.568;13.364;2023-02-01T04:34:50;4.70;99.90
5041;DHT22;2539;52.568;13.364;2023-02-01T04:37:16;4.70;99.90
5041;DHT22;2539;52.568;13.364;2023-02-01T04:39:43;4.70;99.90
5041;DHT22;2539;52.568;13.364;2023-02-01T04:42:09;4.70;99.90
5041;DHT22;2539;52.568;13.364;2023-02-01T04:44:35;4.70;99.90
5041;DHT22;2539;52.568;13.364;2023-02-01T04:47:08;4.70;99.90
5041;DHT22;2539;52.568;13.364;2023-02-01T04:49:34;4.80;99.90
5041;DHT22;2539;52.568;13.364;2023-02-01T04:52:00;4.80;99.90
5041;DHT22;2539;52.568;13.364;2023-02-01T04:54:26;4.90;99.90
5041;DHT22;2539;52.568;13.364;2023-02-01T04:56:53;4.90;99.90
5041;DHT22;2539;52.568;13.364;2023-02-01T04:59:19;4.90;99.90
5041;DHT22;2539;52.568;13.364;2023-02-01T05:01:45;4.90;99.90
5041;DHT22;2539;52.568;13.364;2023-02-01T05:04:11;5.00;99.90
5041;DHT22;2539;52.568;13.364;2023-02-01T05:06:38;5.00;99.90
5041;DHT22;2539;52.568;13.364;2023-02-01T05:09:04;5.00;99.90
5041;DHT22;2539;52.568;13.364;2023-02-01T05:11:30;5.00;99.90
5041;DHT22;2539;52.568;13.364;2023-02-01T05:14:16;5.10;99.90
5041;DHT22;2539;52.568;13.364;2023-02-01T05:16:42;5.10;99.90
5041;DHT22;2539;52.568;13.364;2023-02-01T05:19:08;5.10;99.90
5041;DHT22;2539;52.568;13.364;2023-02-01T05:21:34;5.10;99.90
5041;DHT22;2539;52.568;13.364;2023-02-01T05:24:01;5.10;99.90
5041;DHT22;2539;52.568;13.364;2023-02-01T05:26:36;5.20;99.90
5041;DHT22;2539;52.568;13.364;2023-02-01T05:29:04;5.20;99.90
5041;DHT22;2539;52.568;13.364;2023-02-01T05:31:30;5.20;99.90
5041;DHT22;2539;52.568;13.364;2023-02-01T05:33:56;5.20;99.90
5041;DHT22;2539;52.568;13.364;2023-02-01T05:36:22;5.20;99.90
5041;DHT22;2539;52.568;13.364;2023-02-01T05:38:48;5.20;99.90
5041;DHT22;2539;52.568;13.364;2023-02-01T05:41:13;5.20;99.90
5041;DHT22;2539;52.568;13.364;2023-02-01T05:43:39;5.30;99.90
5041;DHT22;2539;52.568;13.364;2023-02-01T05:46:05;5.20;99.90
5041;DHT22;2539;52.568;13.364;2023-02-01T05:48:31;5.20;99.90
5041;DHT22;2539;52.568;13.364;2023-02-01T05:50:58;5.30;99.90
5041;DHT22;2539;52.568;13.364;2023-02-01T05:53:24;5.30;99.90
5041;DHT22;2539;52.568;13.364;2023-02-01T05:55:50;5.30;99.90
5041;DHT22;2539;52.568;13.364;2023-02-01T05:58:16;5.30;99.90
5041;DHT22;2539;52.568;13.364;2023-02-01T06:00:43;5.30;99.90
5041;DHT22;2539;52.568;13.364;2023-02-01T06:03:09;5.30;99.90
5041;DHT22;2539;52.568;13.364;2023-02-01T06:05:35;5.30;99.90
5041;DHT22;2539;52.568;13.364;2023-02-01T06:08:03;5.40;99.90
5041;DHT22;2539;52.568;13.364;2023-02-01T06:10:29;5.30;99.90
5041;DHT22;2539;52.568;13.364;2023-02-01T06:12:55;5.20;99.90
5041;DHT22;2539;52.568;13.364;2023-02-01T06:15:22;5.50;99.90
5041;DHT22;2539;52.568;13.364;2023-02-01T06:17:48;5.10;99.90
5041;DHT22;2539;52.568;13.364;2023-02-01T06:20:16;5.30;99.90
5041;DHT22;2539;52.568;13.364;2023-02-01T06:22:43;5.20;99.90
5041;DHT22;2539;52.568;13.364;2023-02-01T06:25:09;5.20;99.90
5041;DHT22;2539;52.568;13.364;2023-02-01T06:27:36;5.20;99.90
5041;DHT22;2539;52.568;13.364;2023-02-01T06:30:04;5.20;99.90
5041;DHT22;2539;52.568;13.364;2023-02-01T06:32:30;5.10;99.90
5041;DHT22;2539;52.568;13.364;2023-02-01T06:34:57;5.10;99.90
5041;DHT22;2539;52.568;13.364;2023-02-01T06:37:24;5.00;99.90
5041;DHT22;2539;52.568;13.364;2023-02-01T06:39:52;4.90;99.90
5041;DHT22;2539;52.568;13.364;2023-02-01T06:42:18;5.00;99.90
5041;DHT22;2539;52.568;13.364;2023-02-01T06:44:44;5.00;99.90
5041;DHT22;2539;52.568;13.364;2023-02-01T06:47:10;5.00;99.90
5041;DHT22;2539;52.568;13.364;2023-02-01T06:49:37;5.10;99.90
5041;DHT22;2539;52.568;13.364;2023-02-01T06:52:04;5.10;99.90
5041;DHT22;2539;52.568;13.364;2023-02-01T06:54:30;5.00;99.90
5041;DHT22;2539;52.568;13.364;2023-02-01T06:56:59;5.10;99.90
5041;DHT22;2539;52.568;13.364;2023-02-01T06:59:26;5.00;99.90
5041;DHT22;2539;52.568;13.364;2023-02-01T07:01:52;5.10;99.90
5041;DHT22;2539;52.568;13.364;2023-02-01T07:04:18;5.10;99.90
5041;DHT22;2539;52.568;13.364;2023-02-01T07:06:45;5.10;99.90
5041;DHT22;2539;52.568;13.364;2023-02-01T07:09:11;5.10;99.90
5041;DHT22;2539;52.568;13.364;2023-02-01T07:11:39;5.20;99.90
5041;DHT22;2539;52.568;13.364;2023-02-01T07:14:10;5.10;99.90
5041;DHT22;2539;52.568;13.364;2023-02-01T07:16:36;5.10;99.90
5041;DHT22;2539;52.568;13.364;2023-02-01T07:19:03;5.10;99.90
5041;DHT22;2539;52.568;13.364;2023-02-01T07:21:29;5.10;99.90
5041;DHT22;2539;52.568;13.364;2023-02-01T07:23:55;5.10;99.90
5041;DHT22;2539;52.568;13.364;2023-02-01T07:26:22;5.00;99.90
5041;DHT22;2539;52.568;13.364;2023-02-01T07:28:48;5.00;99.90
5041;DHT22;2539;52.568;13.364;2023-02-01T07:31:17;5.00;99.90
5041;DHT22;2539;52.568;13.364;2023-02-01T07:33:48;5.10;99.90
5041;DHT22;2539;52.568;13.364;2023-02-01T07:36:18;5.10;99.90
5041;DHT22;2539;52.568;13.364;2023-02-01T07:38:45;5.10;99.90
5041;DHT22;2539;52.568;13.364;2023-02-01T07:41:13;5.20;99.90
5041;DHT22;2539;52.568;13.364;2023-02-01T07:43:39;5.20;99.90
5041;DHT22;2539;52.568;13.364;2023-02-01T07:46:06;5.20;99.90
5041;DHT22;2539;52.568;13.364;2023-02-01T07:48:33;5.20;99.90
5041;DHT22;2539;52.568;13.364;2023-02-01T07:51:05;5.10;99.90
5041;DHT22;2539;52.568;13.364;2023-02-01T07:53:34;5.00;99.90
5041;DHT22;2539;52.568;13.364;2023-02-01T07:56:00;5.00;99.90
5041;DHT22;2539;52.568;13.364;2023-02-01T07:58:27;4.80;99.90
5041;DHT22;2539;52.568;13.364;2023-02-01T08:00:54;4.80;99.90
5041;DHT22;2539;52.568;13.364;2023-02-01T08:03:39;4.60;99.90
5041;DHT22;2539;52.568;13.364;2023-02-01T08:06:05;4.50;99.90
5041;DHT22;2539;52.568;13.364;2023-02-01T08:08:32;4.40;99.90
5041;DHT22;2539;52.568;13.364;2023-02-01T08:10:59;4.20;99.90
5041;DHT22;2539;52.568;13.364;2023-02-01T08:13:27;4.20;99.90
5041;DHT22;2539;52.568;13.364;2023-02-01T08:15:58;4.10;99.90
5041;DHT22;2539;52.568;13.364;2023-02-01T08:18:25;3.90;99.90
5041;DHT22;2539;52.568;13.364;2023-02-01T08:20:51;4.10;99.90
5041;DHT22;2539;52.568;13.364;2023-02-01T08:23:18;4.10;99.90
5041;DHT22;2539;52.568;13.364;2023-02-01T08:25:44;4.10;99.90
5041;DHT22;2539;52.568;13.364;2023-02-01T08:28:10;4.00;99.90
5041;DHT22;2539;52.568;13.364;2023-02-01T08:30:37;4.00;99.90
5041;DHT22;2539;52.568;13.364;2023-02-01T08:33:05;4.00;99.90
5041;DHT22;2539;52.568;13.364;2023-02-01T08:35:38;4.00;99.90
5041;DHT22;2539;52.568;13.364;2023-02-01T08:38:04;3.90;99.90
5041;DHT22;2539;52.568;13.364;2023-02-01T08:40:30;3.90;99.90
5041;DHT22;2539;52.568;13.364;2023-02-01T08:42:56;3.90;99.90
5041;DHT22;2539;52.568;13.364;2023-02-01T08:45:25;3.80;99.90
5041;DHT22;2539;52.568;13.364;2023-02-01T08:47:52;3.90;99.90
5041;DHT22;2539;52.568;13.364;2023-02-01T08:50:20;3.90;99.90
5041;DHT22;2539;52.568;13.364;2023-02-01T08:52:47;3.90;99.90
5041;DHT22;2539;52.568;13.364;2023-02-01T08:55:14;3.90;99.90
5041;DHT22;2539;52.568;13.364;2023-02-01T08:57:42;3.80;99.90
5041;DHT22;2539;52.568;13.364;2023-02-01T09:00:12;3.80;99.90
5041;DHT22;2539;52.568;13.364;2023-02-01T09:02:38;3.80;99.90
5041;DHT22;2539;52.568;13.364;2023-02-01T09:05:05;3.90;99.90
5041;DHT22;2539;52.568;13.364;2023-02-01T09:07:33;3.80;99.90
5041;DHT22;2539;52.568;13.364;2023-02-01T09:10:00;3.90;99.90
5041;DHT22;2539;52.568;13.364;2023-02-01T09:12:28;4.00;99.90
5041;DHT22;2539;52.568;13.364;2023-02-01T09:14:56;4.00;99.90
5041;DHT22;2539;52.568;13.364;2023-02-01T09:17:23;4.10;99.90
5041;DHT22;2539;52.568;13.364;2023-02-01T09:19:49;4.10;99.90
5041;DHT22;2539;52.568;13.364;2023-02-01T09:22:15;4.20;99.90
5041;DHT22;2539;52.568;13.364;2023-02-01T09:24:42;4.30;99.90
5041;DHT22;2539;52.568;13.364;2023-02-01T09:27:08;4.30;99.90
5041;DHT22;2539;52.568;13.364;2023-02-01T09:29:35;4.30;99.90
5041;DHT22;2539;52.568;13.364;2023-02-01T09:32:01;4.40;99.90
5041;DHT22;2539;52.568;13.364;2023-02-01T09:34:27;4.40;99.90
5041;DHT22;2539;52.568;13.364;2023-02-01T09:36:54;4.40;99.90
5041;DHT22;2539;52.568;13.364;2023-02-01T09:39:20;4.40;99.90
5041;DHT22;2539;52.568;13.364;2023-02-01T09:47:17;4.40;99.90
5041;DHT22;2539;52.568;13.364;2023-02-01T09:50:13;4.40;99.90
5041;DHT22;2539;52.568;13.364;2023-02-01T09:53:00;4.40;99.90
5041;DHT22;2539;52.568;13.364;2023-02-01T09:55:48;4.40;99.90
5041;DHT22;2539;52.568;13.364;2023-02-01T09:58:35;4.50;99.90
5041;DHT22;2539;52.568;13.364;2023-02-01T10:01:04;4.50;99.90
5041;DHT22;2539;52.568;13.364;2023-02-01T10:03:33;4.50;99.90
5041;DHT22;2539;52.568;13.364;2023-02-01T10:09:07;4.50;99.90
5041;DHT22;2539;52.568;13.364;2023-02-01T10:17:05;4.20;99.90
5041;DHT22;2539;52.568;13.364;2023-02-01T10:19:50;4.20;99.90
5041;DHT22;2539;52.568;13.364;2023-02-01T10:22:43;4.20;99.90
5041;DHT22;2539;52.568;13.364;2023-02-01T10:25:22;4.30;99.90
5041;DHT22;2539;52.568;13.364;2023-02-01T10:27:52;4.40;99.90
5041;DHT22;2539;52.568;13.364;2023-02-01T10:32:48;4.40;99.90
5041;DHT22;2539;52.568;13.364;2023-02-01T10:35:18;4.60;99.90
5041;DHT22;2539;52.568;13.364;2023-02-01T10:37:47;4.70;99.90
5041;DHT22;2539;52.568;13.364;2023-02-01T10:40:23;4.80;99.90
5041;DHT22;2539;52.568;13.364;2023-02-01T10:42:52;4.90;99.90
5041;DHT22;2539;52.568;13.364;2023-02-01T10:45:21;4.80;99.90
5041;DHT22;2539;52.568;13.364;2023-02-01T10:47:49;4.90;99.90
5041;DHT22;2539;52.568;13.364;2023-02-01T10:50:54;4.80;99.90
5041;DHT22;2539;52.568;13.364;2023-02-01T10:53:35;4.70;99.90
5041;DHT22;2539;52.568;13.364;2023-02-01T10:56:09;4.50;99.90
5041;DHT22;2539;52.568;13.364;2023-02-01T10:58:42;4.50;99.90
5041;DHT22;2539;52.568;13.364;2023-02-01T11:01:17;4.40;99.90
5041;DHT22;2539;52.568;13.364;2023-02-01T11:03:55;4.40;99.90
5041;DHT22;2539;52.568;13.364;2023-02-01T11:06:27;4.40;99.90
5041;DHT22;2539;52.568;13.364;2023-02-01T11:08:57;4.50;99.90
5041;DHT22;2539;52.568;13.364;2023-02-01T11:11:24;4.60;99.90
5041;DHT22;2539;52.568;13.364;2023-02-01T11:14:04;4.70;99.90
5041;DHT22;2539;52.568;13.364;2023-02-01T11:16:38;4.90;99.90
5041;DHT22;2539;52.568;13.364;2023-02-01T11:19:05;5.00;99.90
5041;DHT22;2539;52.568;13.364;2023-02-01T11:21:33;5.10;99.90
5041;DHT22;2539;52.568;13.364;2023-02-01T11:24:04;5.10;99.90
5041;DHT22;2539;52.568;13.364;2023-02-01T11:26:31;5.20;99.90
5041;DHT22;2539;52.568;13.364;2023-02-01T11:29:03;5.30;99.90
5041;DHT22;2539;52.568;13.364;2023-02-01T11:31:30;5.50;99.90
5041;DHT22;2539;52.568;13.364;2023-02-01T11:34:13;5.80;99.90
5041;DHT22;2539;52.568;13.364;2023-02-01T11:36:41;5.90;99.90
5041;DHT22;2539;52.568;13.364;2023-02-01T11:42:14;5.80;99.90
5041;DHT22;2539;52.568;13.364;2023-02-01T11:44:42;5.70;99.90
5041;DHT22;2539;52.568;13.364;2023-02-01T11:47:30;5.70;99.90
5041;DHT22;2539;52.568;13.364;2023-02-01T11:50:02;5.80;99.90
5041;DHT22;2539;52.568;13.364;2023-02-01T11:52:55;5.60;99.90
5041;DHT22;2539;52.568;13.364;2023-02-01T11:55:42;5.70;99.90
5041;DHT22;2539;52.568;13.364;2023-02-01T11:58:33;5.90;99.90
5041;DHT22;2539;52.568;13.364;2023-02-01T12:01:18;6.10;99.90
5041;DHT22;2539;52.568;13.364;2023-02-01T12:04:10;6.10;99.90
5041;DHT22;2539;52.568;13.364;2023-02-01T12:07:00;6.30;99.90
5041;DHT22;2539;52.568;13.364;2023-02-01T12:09:45;6.50;99.90
5041;DHT22;2539;52.568;13.364;2023-02-01T12:12:38;6.60;99.90
5041;DHT22;2539;52.568;13.364;2023-02-01T12:15:36;6.70;99.90
5041;DHT22;2539;52.568;13.364;2023-02-01T12:21:18;6.50;99.90
5041;DHT22;2539;52.568;13.364;2023-02-01T12:32:42;6.40;99.90
5041;DHT22;2539;52.568;13.364;2023-02-01T12:38:42;6.20;99.90
5041;DHT22;2539;52.568;13.364;2023-02-01T12:41:33;6.20;99.90
5041;DHT22;2539;52.568;13.364;2023-02-01T12:44:30;6.20;99.90
5041;DHT22;2539;52.568;13.364;2023-02-01T12:47:05;6.00;99.90
5041;DHT22;2539;52.568;13.364;2023-02-01T12:49:55;6.10;99.90
5041;DHT22;2539;52.568;13.364;2023-02-01T12:52:46;6.10;99.90
5041;DHT22;2539;52.568;13.364;2023-02-01T12:55:36;6.10;99.90
5041;DHT22;2539;52.568;13.364;2023-02-01T12:58:19;6.20;99.90
5041;DHT22;2539;52.568;13.364;2023-02-01T13:01:07;6.30;99.90
5041;DHT22;2539;52.568;13.364;2023-02-01T13:03:54;6.30;99.90
5041;DHT22;2539;52.568;13.364;2023-02-01T13:06:30;6.30;99.90
5041;DHT22;2539;52.568;13.364;2023-02-01T13:09:09;6.40;99.90
5041;DHT22;2539;52.568;13.364;2023-02-01T13:11:44;6.40;99.90
5041;DHT22;2539;52.568;13.364;2023-02-01T13:16:52;6.00;99.90
5041;DHT22;2539;52.568;13.364;2023-02-01T13:19:35;5.60;99.90
5041;DHT22;2539;52.568;13.364;2023-02-01T13:22:09;5.10;99.90
5041;DHT22;2539;52.568;13.364;2023-02-01T13:27:26;5.20;99.90
5041;DHT22;2539;52.568;13.364;2023-02-01T13:29:58;5.20;99.90
5041;DHT22;2539;52.568;13.364;2023-02-01T13:43:27;6.40;99.90
5041;DHT22;2539;52.568;13.364;2023-02-01T13:45:57;6.50;99.90
5041;DHT22;2539;52.568;13.364;2023-02-01T13:48:40;6.50;99.90
5041;DHT22;2539;52.568;13.364;2023-02-01T13:51:08;6.50;99.90
5041;DHT22;2539;52.568;13.364;2023-02-01T13:53:36;6.50;99.90
5041;DHT22;2539;52.568;13.364;2023-02-01T13:56:15;6.50;99.90
5041;DHT22;2539;52.568;13.364;2023-02-01T13:58:44;6.50;99.90
5041;DHT22;2539;52.568;13.364;2023-02-01T14:03:58;6.50;99.90
5041;DHT22;2539;52.568;13.364;2023-02-01T14:11:49;6.50;99.90
5041;DHT22;2539;52.568;13.364;2023-02-01T14:16:43;6.40;99.90
5041;DHT22;2539;52.568;13.364;2023-02-01T14:19:25;6.10;99.90
5041;DHT22;2539;52.568;13.364;2023-02-01T14:21:55;5.90;99.90
5041;DHT22;2539;52.568;13.364;2023-02-01T14:24:33;5.70;99.90
5041;DHT22;2539;52.568;13.364;2023-02-01T14:29:41;5.60;99.90
5041;DHT22;2539;52.568;13.364;2023-02-01T14:32:31;5.60;99.90
5041;DHT22;2539;52.568;13.364;2023-02-01T14:35:02;5.50;99.90
5041;DHT22;2539;52.568;13.364;2023-02-01T14:37:36;5.60;99.90
5041;DHT22;2539;52.568;13.364;2023-02-01T15:06:33;6.00;99.90
5041;DHT22;2539;52.568;13.364;2023-02-01T15:11:28;6.10;99.90
5041;DHT22;2539;52.568;13.364;2023-02-01T15:13:54;5.90;99.90
5041;DHT22;2539;52.568;13.364;2023-02-01T15:16:24;5.70;99.90
5041;DHT22;2539;52.568;13.364;2023-02-01T15:19:07;5.60;99.90
5041;DHT22;2539;52.568;13.364;2023-02-01T15:21:43;5.50;99.90
5041;DHT22;2539;52.568;13.364;2023-02-01T15:24:18;5.40;99.90
5041;DHT22;2539;52.568;13.364;2023-02-01T15:26:45;5.20;99.90
5041;DHT22;2539;52.568;13.364;2023-02-01T15:29:12;5.20;99.90
5041;DHT22;2539;52.568;13.364;2023-02-01T15:31:45;5.00;99.90
5041;DHT22;2539;52.568;13.364;2023-02-01T15:34:12;5.00;99.90
5041;DHT22;2539;52.568;13.364;2023-02-01T15:36:39;4.80;99.90
5041;DHT22;2539;52.568;13.364;2023-02-01T15:39:21;4.80;99.90
5041;DHT22;2539;52.568;13.364;2023-02-01T15:41:58;4.70;99.90
5041;DHT22;2539;52.568;13.364;2023-02-01T15:44:34;4.70;99.90
5041;DHT22;2539;52.568;13.364;2023-02-01T15:47:15;4.50;99.90
5041;DHT22;2539;52.568;13.364;2023-02-01T15:49:44;4.30;99.90
5041;DHT22;2539;52.568;13.364;2023-02-01T15:52:30;4.30;99.90
5041;DHT22;2539;52.568;13.364;2023-02-01T15:55:02;4.20;99.90
5041;DHT22;2539;52.568;13.364;2023-02-01T15:57:34;3.90;99.90
5041;DHT22;2539;52.568;13.364;2023-02-01T16:00:27;3.70;99.90
5041;DHT22;2539;52.568;13.364;2023-02-01T16:03:04;3.40;99.90
5041;DHT22;2539;52.568;13.364;2023-02-01T16:05:39;3.10;99.90
5041;DHT22;2539;52.568;13.364;2023-02-01T16:08:30;2.90;99.90
5041;DHT22;2539;52.568;13.364;2023-02-01T16:11:21;2.80;99.90
5041;DHT22;2539;52.568;13.364;2023-02-01T16:13:49;2.90;99.90
5041;DHT22;2539;52.568;13.364;2023-02-01T16:16:15;2.90;99.90
5041;DHT22;2539;52.568;13.364;2023-02-01T16:18:42;2.90;99.90
5041;DHT22;2539;52.568;13.364;2023-02-01T16:21:08;2.90;99.90
5041;DHT22;2539;52.568;13.364;2023-02-01T16:23:35;2.90;99.90
5041;DHT22;2539;52.568;13.364;2023-02-01T16:26:03;2.90;99.90
5041;DHT22;2539;52.568;13.364;2023-02-01T16:28:30;3.00;99.90
5041;DHT22;2539;52.568;13.364;2023-02-01T16:30:56;3.00;99.90
5041;DHT22;2539;52.568;13.364;2023-02-01T16:33:23;2.90;99.90
5041;DHT22;2539;52.568;13.364;2023-02-01T16:35:50;3.30;99.90
5041;DHT22;2539;52.568;13.364;2023-02-01T16:38:18;3.00;99.90
5041;DHT22;2539;52.568;13.364;2023-02-01T16:40:47;3.00;99.90
5041;DHT22;2539;52.568;13.364;2023-02-01T16:43:20;3.00;99.90
5041;DHT22;2539;52.568;13.364;2023-02-01T16:45:48;2.90;99.90
5041;DHT22;2539;52.568;13.364;2023-02-01T16:48:26;2.90;99.90
5041;DHT22;2539;52.568;13.364;2023-02-01T16:50:56;2.90;99.90
5041;DHT22;2539;52.568;13.364;2023-02-01T16:53:24;2.80;99.90
5041;DHT22;2539;52.568;13.364;2023-02-01T16:55:51;2.90;99.90
5041;DHT22;2539;52.568;13.364;2023-02-01T16:58:19;3.00;99.90
5041;DHT22;2539;52.568;13.364;2023-02-01T17:00:46;3.00;99.90
5041;DHT22;2539;52.568;13.364;2023-02-01T17:03:14;3.00;99.90
5041;DHT22;2539;52.568;13.364;2023-02-01T17:05:48;3.00;99.90
5041;DHT22;2539;52.568;13.364;2023-02-01T17:08:19;3.00;99.90
5041;DHT22;2539;52.568;13.364;2023-02-01T17:10:47;3.10;99.90
5041;DHT22;2539;52.568;13.364;2023-02-01T17:13:14;3.10;99.90
5041;DHT22;2539;52.568;13.364;2023-02-01T17:15:52;3.20;99.90
5041;DHT22;2539;52.568;13.364;2023-02-01T17:18:19;3.20;99.90
5041;DHT22;2539;52.568;13.364;2023-02-01T17:20:45;3.10;99.90
5041;DHT22;2539;52.568;13.364;2023-02-01T17:23:15;3.20;99.90
5041;DHT22;2539;52.568;13.364;2023-02-01T17:25:42;3.30;99.90
5041;DHT22;2539;52.568;13.364;2023-02-01T17:28:08;3.30;99.90
5041;DHT22;2539;52.568;13.364;2023-02-01T17:30:36;3.40;99.90
5041;DHT22;2539;52.568;13.364;2023-02-01T17:33:03;3.50;99.90
5041;DHT22;2539;52.568;13.364;2023-02-01T17:35:29;3.50;99.90
5041;DHT22;2539;52.568;13.364;2023-02-01T17:37:57;3.50;99.90
5041;DHT22;2539;52.568;13.364;2023-02-01T17:40:23;3.50;99.90
5041;DHT22;2539;52.568;13.364;2023-02-01T17:42:50;3.60;99.90
5041;DHT22;2539;52.568;13.364;2023-02-01T17:45:39;3.60;99.90
5041;DHT22;2539;52.568;13.364;2023-02-01T17:48:07;3.60;99.90
5041;DHT22;2539;52.568;13.364;2023-02-01T17:50:36;3.60;99.90
5041;DHT22;2539;52.568;13.364;2023-02-01T17:53:04;3.80;99.90
5041;DHT22;2539;52.568;13.364;2023-02-01T17:55:34;3.70;99.90
5041;DHT22;2539;52.568;13.364;2023-02-01T17:58:01;3.70;99.90
5041;DHT22;2539;52.568;13.364;2023-02-01T18:00:27;3.80;99.90
5041;DHT22;2539;52.568;13.364;2023-02-01T18:02:54;3.80;99.90
5041;DHT22;2539;52.568;13.364;2023-02-01T18:05:39;3.90;99.90
5041;DHT22;2539;52.568;13.364;2023-02-01T18:08:07;4.40;99.90
5041;DHT22;2539;52.568;13.364;2023-02-01T18:10:34;3.90;99.90
5041;DHT22;2539;52.568;13.364;2023-02-01T18:13:04;3.90;99.90
5041;DHT22;2539;52.568;13.364;2023-02-01T18:15:30;3.90;99.90
5041;DHT22;2539;52.568;13.364;2023-02-01T18:17:57;3.90;99.90